sensor_id;sensor_type;location;lat;lon;timestamp;P1;durP1;ratioP1;P2;durP2;ratioP2
83895;SDS011;74045;42.812;74.638;2024-01-06T00:01:41;25.20;;;13.18;;
83895;SDS011;74045;42.812;74.638;2024-01-06T00:04:06;26.35;;;12.50;;
83895;SDS011;74045;42.812;74.638;2024-01-06T00:06:32;30.88;;;13.30;;
83895;SDS011;74045;42.812;74.638;2024-01-06T00:08:58;30.90;;;13.75;;
83895;SDS011;74045;42.812;74.638;2024-01-06T00:11:24;29.42;;;12.68;;
83895;SDS011;74045;42.812;74.638;2024-01-06T00:13:49;28.05;;;12.50;;
83895;SDS011;74045;42.812;74.638;2024-01-06T00:16:18;26.10;;;12.55;;
83895;SDS011;74045;42.812;74.638;2024-01-06T00:18:48;27.15;;;12.15;;
83895;SDS011;74045;42.812;74.638;2024-01-06T00:21:14;27.23;;;12.60;;
83895;SDS011;74045;42.812;74.638;2024-01-06T00:23:40;31.40;;;13.02;;
83895;SDS011;74045;42.812;74.638;2024-01-06T00:26:06;35.15;;;13.88;;
83895;SDS011;74045;42.812;74.638;2024-01-06T00:28:33;27.42;;;12.63;;
83895;SDS011;74045;42.812;74.638;2024-01-06T00:31:00;30.17;;;11.52;;
83895;SDS011;74045;42.812;74.638;2024-01-06T00:33:26;30.73;;;12.15;;
83895;SDS011;74045;42.812;74.638;2024-01-06T00:35:51;30.15;;;11.30;;
83895;SDS011;74045;42.812;74.638;2024-01-06T00:38:17;22.13;;;10.20;;
83895;SDS011;74045;42.812;74.638;2024-01-06T00:40:43;29.83;;;11.77;;
83895;SDS011;74045;42.812;74.638;2024-01-06T00:43:09;29.55;;;11.00;;
83895;SDS011;74045;42.812;74.638;2024-01-06T00:45:35;24.88;;;9.98;;
83895;SDS011;74045;42.812;74.638;2024-01-06T00:48:01;26.05;;;10.60;;
83895;SDS011;74045;42.812;74.638;2024-01-06T00:50:26;26.42;;;10.85;;
83895;SDS011;74045;42.812;74.638;2024-01-06T00:52:52;30.65;;;11.32;;
83895;SDS011;74045;42.812;74.638;2024-01-06T00:55:19;27.67;;;11.05;;
83895;SDS011;74045;42.812;74.638;2024-01-06T00:57:45;21.85;;;10.73;;
83895;SDS011;74045;42.812;74.638;2024-01-06T01:00:11;31.80;;;12.68;;
83895;SDS011;74045;42.812;74.638;2024-01-06T01:02:38;28.92;;;11.00;;
83895;SDS011;74045;42.812;74.638;2024-01-06T01:05:04;24.40;;;10.63;;
83895;SDS011;74045;42.812;74.638;2024-01-06T01:07:29;30.15;;;13.05;;
83895;SDS011;74045;42.812;74.638;2024-01-06T01:09:56;28.83;;;12.50;;
83895;SDS011;74045;42.812;74.638;2024-01-06T01:12:22;24.58;;;11.05;;
83895;SDS011;74045;42.812;74.638;2024-01-06T01:14:49;30.08;;;12.85;;
83895;SDS011;74045;42.812;74.638;2024-01-06T01:17:16;40.35;;;12.52;;
83895;SDS011;74045;42.812;74.638;2024-01-06T01:19:41;28.90;;;11.10;;
83895;SDS011;74045;42.812;74.638;2024-01-06T01:22:07;24.75;;;10.48;;
83895;SDS011;74045;42.812;74.638;2024-01-06T01:24:33;25.63;;;10.80;;
83895;SDS011;74045;42.812;74.638;2024-01-06T01:26:59;32.63;;;11.43;;
83895;SDS011;74045;42.812;74.638;2024-01-06T01:29:25;24.67;;;11.43;;
83895;SDS011;74045;42.812;74.638;2024-01-06T01:31:51;22.83;;;10.73;;
83895;SDS011;74045;42.812;74.638;2024-01-06T01:34:17;26.77;;;10.43;;
83895;SDS011;74045;42.812;74.638;2024-01-06T01:36:43;26.02;;;11.00;;
83895;SDS011;74045;42.812;74.638;2024-01-06T01:39:09;24.35;;;10.98;;
83895;SDS011;74045;42.812;74.638;2024-01-06T01:41:35;24.75;;;10.23;;
83895;SDS011;74045;42.812;74.638;2024-01-06T01:44:01;40.80;;;13.68;;
83895;SDS011;74045;42.812;74.638;2024-01-06T01:46:27;31.42;;;12.40;;
83895;SDS011;74045;42.812;74.638;2024-01-06T01:48:54;36.80;;;12.20;;
83895;SDS011;74045;42.812;74.638;2024-01-06T01:51:21;28.67;;;10.73;;
83895;SDS011;74045;42.812;74.638;2024-01-06T01:53:47;28.63;;;11.63;;
83895;SDS011;74045;42.812;74.638;2024-01-06T01:56:13;26.05;;;9.82;;
83895;SDS011;74045;42.812;74.638;2024-01-06T01:58:40;26.75;;;12.25;;
83895;SDS011;74045;42.812;74.638;2024-01-06T02:01:07;20.63;;;9.57;;
83895;SDS011;74045;42.812;74.638;2024-01-06T02:03:33;31.73;;;11.55;;
83895;SDS011;74045;42.812;74.638;2024-01-06T02:06:00;28.52;;;10.65;;
83895;SDS011;74045;42.812;74.638;2024-01-06T02:08:26;22.98;;;10.63;;
83895;SDS011;74045;42.812;74.638;2024-01-06T02:10:55;28.88;;;10.43;;
83895;SDS011;74045;42.812;74.638;2024-01-06T02:13:24;24.95;;;10.57;;
83895;SDS011;74045;42.812;74.638;2024-01-06T02:15:57;55.15;;;19.48;;
83895;SDS011;74045;42.812;74.638;2024-01-06T02:18:23;38.67;;;13.95;;
83895;SDS011;74045;42.812;74.638;2024-01-06T02:20:49;36.65;;;12.70;;
83895;SDS011;74045;42.812;74.638;2024-01-06T02:23:18;29.45;;;12.35;;
83895;SDS011;74045;42.812;74.638;2024-01-06T02:25:43;35.88;;;12.73;;
83895;SDS011;74045;42.812;74.638;2024-01-06T02:28:09;38.67;;;12.57;;
83895;SDS011;74045;42.812;74.638;2024-01-06T02:30:35;30.95;;;13.88;;
83895;SDS011;74045;42.812;74.638;2024-01-06T02:33:00;35.53;;;13.05;;
83895;SDS011;74045;42.812;74.638;2024-01-06T02:35:26;37.15;;;13.82;;
83895;SDS011;74045;42.812;74.638;2024-01-06T02:37:52;34.13;;;13.77;;
83895;SDS011;74045;42.812;74.638;2024-01-06T02:40:18;33.60;;;13.60;;
83895;SDS011;74045;42.812;74.638;2024-01-06T02:42:43;32.78;;;13.05;;
83895;SDS011;74045;42.812;74.638;2024-01-06T02:45:09;34.00;;;14.68;;
83895;SDS011;74045;42.812;74.638;2024-01-06T02:47:35;35.78;;;16.00;;
83895;SDS011;74045;42.812;74.638;2024-01-06T02:50:00;34.03;;;14.63;;
83895;SDS011;74045;42.812;74.638;2024-01-06T02:52:26;43.63;;;14.48;;
83895;SDS011;74045;42.812;74.638;2024-01-06T02:54:52;39.40;;;15.73;;
83895;SDS011;74045;42.812;74.638;2024-01-06T02:57:18;34.05;;;15.80;;
83895;SDS011;74045;42.812;74.638;2024-01-06T02:59:44;44.15;;;16.80;;
83895;SDS011;74045;42.812;74.638;2024-01-06T03:02:10;33.80;;;15.40;;
83895;SDS011;74045;42.812;74.638;2024-01-06T03:04:36;38.28;;;16.17;;
83895;SDS011;74045;42.812;74.638;2024-01-06T03:07:02;29.77;;;15.40;;
83895;SDS011;74045;42.812;74.638;2024-01-06T03:09:28;47.75;;;15.63;;
83895;SDS011;74045;42.812;74.638;2024-01-06T03:11:53;36.40;;;15.50;;
83895;SDS011;74045;42.812;74.638;2024-01-06T03:14:19;39.90;;;15.75;;
83895;SDS011;74045;42.812;74.638;2024-01-06T03:16:45;44.72;;;15.07;;
83895;SDS011;74045;42.812;74.638;2024-01-06T03:19:11;37.42;;;14.20;;
83895;SDS011;74045;42.812;74.638;2024-01-06T03:21:36;33.83;;;15.13;;
83895;SDS011;74045;42.812;74.638;2024-01-06T03:24:03;45.53;;;15.77;;
83895;SDS011;74045;42.812;74.638;2024-01-06T03:26:29;39.75;;;14.45;;
83895;SDS011;74045;42.812;74.638;2024-01-06T03:28:55;31.80;;;13.50;;
83895;SDS011;74045;42.812;74.638;2024-01-06T03:31:21;39.80;;;13.50;;
83895;SDS011;74045;42.812;74.638;2024-01-06T03:33:47;30.80;;;12.95;;
83895;SDS011;74045;42.812;74.638;2024-01-06T03:36:13;36.05;;;14.48;;
83895;SDS011;74045;42.812;74.638;2024-01-06T03:38:42;31.73;;;14.05;;
83895;SDS011;74045;42.812;74.638;2024-01-06T03:41:08;40.45;;;15.43;;
83895;SDS011;74045;42.812;74.638;2024-01-06T03:43:33;40.78;;;14.40;;
83895;SDS011;74045;42.812;74.638;2024-01-06T03:45:59;39.15;;;15.65;;
83895;SDS011;74045;42.812;74.638;2024-01-06T03:48:25;37.17;;;14.73;;
83895;SDS011;74045;42.812;74.638;2024-01-06T03:50:51;35.95;;;13.82;;
83895;SDS011;74045;42.812;74.638;2024-01-06T03:53:17;34.35;;;12.10;;
83895;SDS011;74045;42.812;74.638;2024-01-06T03:55:43;25.45;;;11.80;;
83895;SDS011;74045;42.812;74.638;2024-01-06T03:58:08;28.52;;;11.13;;
83895;SDS011;74045;42.812;74.638;2024-01-06T04:00:34;27.70;;;12.18;;
83895;SDS011;74045;42.812;74.638;2024-01-06T04:03:01;29.38;;;10.63;;
83895;SDS011;74045;42.812;74.638;2024-01-06T04:05:26;27.33;;;10.65;;
83895;SDS011;74045;42.812;74.638;2024-01-06T04:07:52;28.80;;;11.32;;
83895;SDS011;74045;42.812;74.638;2024-01-06T04:10:18;37.95;;;11.32;;
83895;SDS011;74045;42.812;74.638;2024-01-06T04:12:43;26.42;;;10.32;;
83895;SDS011;74045;42.812;74.638;2024-01-06T04:15:09;29.48;;;10.35;;
83895;SDS011;74045;42.812;74.638;2024-01-06T04:17:35;21.77;;;9.50;;
83895;SDS011;74045;42.812;74.638;2024-01-06T04:20:01;25.33;;;10.18;;
83895;SDS011;74045;42.812;74.638;2024-01-06T04:22:26;31.75;;;12.18;;
83895;SDS011;74045;42.812;74.638;2024-01-06T04:24:52;35.75;;;13.63;;
83895;SDS011;74045;42.812;74.638;2024-01-06T04:27:18;37.42;;;13.23;;
83895;SDS011;74045;42.812;74.638;2024-01-06T04:29:44;35.25;;;12.93;;
83895;SDS011;74045;42.812;74.638;2024-01-06T04:32:09;42.30;;;13.25;;
83895;SDS011;74045;42.812;74.638;2024-01-06T04:34:35;30.15;;;12.32;;
83895;SDS011;74045;42.812;74.638;2024-01-06T04:37:01;32.78;;;11.85;;
83895;SDS011;74045;42.812;74.638;2024-01-06T04:39:27;31.23;;;12.43;;
83895;SDS011;74045;42.812;74.638;2024-01-06T04:41:52;29.70;;;11.00;;
83895;SDS011;74045;42.812;74.638;2024-01-06T04:44:19;36.97;;;13.82;;
83895;SDS011;74045;42.812;74.638;2024-01-06T04:46:49;38.85;;;15.05;;
83895;SDS011;74045;42.812;74.638;2024-01-06T04:49:14;45.40;;;16.58;;
83895;SDS011;74045;42.812;74.638;2024-01-06T04:51:40;44.00;;;16.77;;
83895;SDS011;74045;42.812;74.638;2024-01-06T04:54:06;50.95;;;20.42;;
83895;SDS011;74045;42.812;74.638;2024-01-06T04:56:31;68.20;;;21.45;;
83895;SDS011;74045;42.812;74.638;2024-01-06T04:58:57;55.33;;;19.15;;
83895;SDS011;74045;42.812;74.638;2024-01-06T05:01:23;57.47;;;20.17;;
83895;SDS011;74045;42.812;74.638;2024-01-06T05:03:49;55.05;;;19.88;;
83895;SDS011;74045;42.812;74.638;2024-01-06T05:06:15;50.88;;;17.35;;
83895;SDS011;74045;42.812;74.638;2024-01-06T05:08:41;40.70;;;15.68;;
83895;SDS011;74045;42.812;74.638;2024-01-06T05:11:10;36.70;;;14.43;;
83895;SDS011;74045;42.812;74.638;2024-01-06T05:13:37;38.58;;;13.82;;
83895;SDS011;74045;42.812;74.638;2024-01-06T05:16:03;32.30;;;11.68;;
83895;SDS011;74045;42.812;74.638;2024-01-06T05:18:29;26.60;;;9.82;;
83895;SDS011;74045;42.812;74.638;2024-01-06T05:20:55;29.30;;;8.98;;
83895;SDS011;74045;42.812;74.638;2024-01-06T05:23:21;16.85;;;8.07;;
83895;SDS011;74045;42.812;74.638;2024-01-06T05:25:46;16.95;;;7.78;;
83895;SDS011;74045;42.812;74.638;2024-01-06T05:28:12;17.38;;;7.57;;
83895;SDS011;74045;42.812;74.638;2024-01-06T05:30:38;21.30;;;8.52;;
83895;SDS011;74045;42.812;74.638;2024-01-06T05:33:04;20.50;;;8.23;;
83895;SDS011;74045;42.812;74.638;2024-01-06T05:35:30;17.42;;;8.38;;
83895;SDS011;74045;42.812;74.638;2024-01-06T05:37:55;24.85;;;7.93;;
83895;SDS011;74045;42.812;74.638;2024-01-06T05:40:21;22.55;;;9.38;;
83895;SDS011;74045;42.812;74.638;2024-01-06T05:42:47;33.78;;;10.48;;
83895;SDS011;74045;42.812;74.638;2024-01-06T05:45:13;25.45;;;9.48;;
83895;SDS011;74045;42.812;74.638;2024-01-06T05:47:38;32.35;;;10.50;;
83895;SDS011;74045;42.812;74.638;2024-01-06T05:50:05;30.30;;;10.82;;
83895;SDS011;74045;42.812;74.638;2024-01-06T05:52:31;32.70;;;10.40;;
83895;SDS011;74045;42.812;74.638;2024-01-06T05:54:57;19.55;;;8.05;;
83895;SDS011;74045;42.812;74.638;2024-01-06T05:57:23;21.95;;;7.13;;
83895;SDS011;74045;42.812;74.638;2024-01-06T05:59:49;20.77;;;10.25;;
83895;SDS011;74045;42.812;74.638;2024-01-06T06:02:14;23.77;;;8.18;;
83895;SDS011;74045;42.812;74.638;2024-01-06T06:04:40;20.33;;;8.07;;
83895;SDS011;74045;42.812;74.638;2024-01-06T06:07:06;23.02;;;9.60;;
83895;SDS011;74045;42.812;74.638;2024-01-06T06:09:32;24.00;;;9.10;;
83895;SDS011;74045;42.812;74.638;2024-01-06T06:11:59;21.92;;;9.27;;
83895;SDS011;74045;42.812;74.638;2024-01-06T06:14:25;25.95;;;10.48;;
83895;SDS011;74045;42.812;74.638;2024-01-06T06:16:51;27.20;;;10.57;;
83895;SDS011;74045;42.812;74.638;2024-01-06T06:19:17;28.08;;;12.10;;
83895;SDS011;74045;42.812;74.638;2024-01-06T06:21:43;23.17;;;10.27;;
83895;SDS011;74045;42.812;74.638;2024-01-06T06:24:12;32.95;;;11.18;;
83895;SDS011;74045;42.812;74.638;2024-01-06T06:26:38;34.22;;;11.55;;
83895;SDS011;74045;42.812;74.638;2024-01-06T06:29:04;18.48;;;9.70;;
83895;SDS011;74045;42.812;74.638;2024-01-06T06:31:30;28.35;;;9.25;;
83895;SDS011;74045;42.812;74.638;2024-01-06T06:33:56;22.80;;;11.43;;
83895;SDS011;74045;42.812;74.638;2024-01-06T06:36:21;26.17;;;12.73;;
83895;SDS011;74045;42.812;74.638;2024-01-06T06:38:47;29.15;;;11.38;;
83895;SDS011;74045;42.812;74.638;2024-01-06T06:41:13;33.80;;;11.02;;
83895;SDS011;74045;42.812;74.638;2024-01-06T06:43:40;25.48;;;9.75;;
83895;SDS011;74045;42.812;74.638;2024-01-06T06:46:06;28.90;;;10.10;;
83895;SDS011;74045;42.812;74.638;2024-01-06T06:48:33;27.80;;;11.82;;
83895;SDS011;74045;42.812;74.638;2024-01-06T06:51:00;31.25;;;12.70;;
83895;SDS011;74045;42.812;74.638;2024-01-06T06:53:27;33.15;;;13.65;;
83895;SDS011;74045;42.812;74.638;2024-01-06T06:55:53;31.33;;;14.05;;
83895;SDS011;74045;42.812;74.638;2024-01-06T06:58:19;32.75;;;14.55;;
83895;SDS011;74045;42.812;74.638;2024-01-06T07:00:44;41.85;;;15.00;;
83895;SDS011;74045;42.812;74.638;2024-01-06T07:03:10;35.00;;;15.80;;
83895;SDS011;74045;42.812;74.638;2024-01-06T07:05:36;42.22;;;19.15;;
83895;SDS011;74045;42.812;74.638;2024-01-06T07:08:02;44.97;;;17.58;;
83895;SDS011;74045;42.812;74.638;2024-01-06T07:10:28;43.85;;;17.60;;
83895;SDS011;74045;42.812;74.638;2024-01-06T07:12:54;38.45;;;16.38;;
83895;SDS011;74045;42.812;74.638;2024-01-06T07:15:19;36.70;;;14.60;;
83895;SDS011;74045;42.812;74.638;2024-01-06T07:17:45;34.60;;;14.73;;
83895;SDS011;74045;42.812;74.638;2024-01-06T07:20:11;32.10;;;12.30;;
83895;SDS011;74045;42.812;74.638;2024-01-06T07:22:37;30.20;;;11.40;;
83895;SDS011;74045;42.812;74.638;2024-01-06T07:25:03;29.63;;;11.48;;
83895;SDS011;74045;42.812;74.638;2024-01-06T07:27:29;29.13;;;11.65;;
83895;SDS011;74045;42.812;74.638;2024-01-06T07:29:54;32.22;;;11.02;;
83895;SDS011;74045;42.812;74.638;2024-01-06T07:32:22;25.88;;;9.80;;
83895;SDS011;74045;42.812;74.638;2024-01-06T07:34:48;21.08;;;8.75;;
83895;SDS011;74045;42.812;74.638;2024-01-06T07:37:14;25.08;;;8.15;;
83895;SDS011;74045;42.812;74.638;2024-01-06T07:39:40;24.13;;;8.90;;
83895;SDS011;74045;42.812;74.638;2024-01-06T07:42:06;29.95;;;8.07;;
83895;SDS011;74045;42.812;74.638;2024-01-06T07:44:32;22.73;;;8.07;;
83895;SDS011;74045;42.812;74.638;2024-01-06T07:46:58;19.27;;;7.57;;
83895;SDS011;74045;42.812;74.638;2024-01-06T07:49:24;24.88;;;8.82;;
83895;SDS011;74045;42.812;74.638;2024-01-06T07:51:50;16.40;;;7.50;;
83895;SDS011;74045;42.812;74.638;2024-01-06T07:54:15;27.67;;;10.07;;
83895;SDS011;74045;42.812;74.638;2024-01-06T07:56:41;27.67;;;9.18;;
83895;SDS011;74045;42.812;74.638;2024-01-06T07:59:09;29.90;;;9.00;;
83895;SDS011;74045;42.812;74.638;2024-01-06T08:01:36;24.45;;;9.40;;
83895;SDS011;74045;42.812;74.638;2024-01-06T08:04:01;23.88;;;9.43;;
83895;SDS011;74045;42.812;74.638;2024-01-06T08:06:27;40.42;;;11.05;;
83895;SDS011;74045;42.812;74.638;2024-01-06T08:08:53;31.75;;;11.15;;
83895;SDS011;74045;42.812;74.638;2024-01-06T08:11:20;26.60;;;10.00;;
83895;SDS011;74045;42.812;74.638;2024-01-06T08:13:46;22.65;;;9.65;;
83895;SDS011;74045;42.812;74.638;2024-01-06T08:16:12;28.00;;;9.90;;
83895;SDS011;74045;42.812;74.638;2024-01-06T08:18:38;27.55;;;10.82;;
83895;SDS011;74045;42.812;74.638;2024-01-06T08:21:03;30.80;;;12.30;;
83895;SDS011;74045;42.812;74.638;2024-01-06T08:23:31;27.77;;;11.40;;
83895;SDS011;74045;42.812;74.638;2024-01-06T08:25:56;33.90;;;11.63;;
83895;SDS011;74045;42.812;74.638;2024-01-06T08:28:22;35.25;;;10.45;;
83895;SDS011;74045;42.812;74.638;2024-01-06T08:30:49;32.42;;;10.13;;
83895;SDS011;74045;42.812;74.638;2024-01-06T08:33:15;40.03;;;11.27;;
83895;SDS011;74045;42.812;74.638;2024-01-06T08:35:42;26.90;;;11.10;;
83895;SDS011;74045;42.812;74.638;2024-01-06T08:38:08;41.30;;;11.20;;
83895;SDS011;74045;42.812;74.638;2024-01-06T08:40:34;30.27;;;10.50;;
83895;SDS011;74045;42.812;74.638;2024-01-06T08:43:01;34.35;;;10.48;;
83895;SDS011;74045;42.812;74.638;2024-01-06T08:45:27;27.35;;;10.32;;
83895;SDS011;74045;42.812;74.638;2024-01-06T08:47:53;27.42;;;10.02;;
83895;SDS011;74045;42.812;74.638;2024-01-06T08:50:18;24.27;;;10.00;;
83895;SDS011;74045;42.812;74.638;2024-01-06T08:52:44;25.83;;;9.90;;
83895;SDS011;74045;42.812;74.638;2024-01-06T08:55:10;26.60;;;10.35;;
83895;SDS011;74045;42.812;74.638;2024-01-06T08:57:35;22.27;;;10.75;;
83895;SDS011;74045;42.812;74.638;2024-01-06T09:00:02;24.15;;;9.90;;
83895;SDS011;74045;42.812;74.638;2024-01-06T09:02:31;30.13;;;10.85;;
83895;SDS011;74045;42.812;74.638;2024-01-06T09:04:57;31.10;;;11.32;;
83895;SDS011;74045;42.812;74.638;2024-01-06T09:07:22;26.00;;;10.75;;
83895;SDS011;74045;42.812;74.638;2024-01-06T09:09:48;31.02;;;10.77;;
83895;SDS011;74045;42.812;74.638;2024-01-06T09:12:14;27.90;;;10.02;;
83895;SDS011;74045;42.812;74.638;2024-01-06T09:14:39;29.73;;;9.90;;
83895;SDS011;74045;42.812;74.638;2024-01-06T09:17:06;36.50;;;10.88;;
83895;SDS011;74045;42.812;74.638;2024-01-06T09:19:31;33.08;;;10.68;;
83895;SDS011;74045;42.812;74.638;2024-01-06T09:21:57;28.25;;;9.63;;
83895;SDS011;74045;42.812;74.638;2024-01-06T09:24:23;26.63;;;9.52;;
83895;SDS011;74045;42.812;74.638;2024-01-06T09:26:48;23.60;;;8.82;;
83895;SDS011;74045;42.812;74.638;2024-01-06T09:29:17;34.20;;;9.77;;
83895;SDS011;74045;42.812;74.638;2024-01-06T09:31:42;26.80;;;10.55;;
83895;SDS011;74045;42.812;74.638;2024-01-06T09:34:11;28.50;;;9.70;;
83895;SDS011;74045;42.812;74.638;2024-01-06T09:36:37;23.20;;;9.57;;
83895;SDS011;74045;42.812;74.638;2024-01-06T09:39:03;26.55;;;9.95;;
83895;SDS011;74045;42.812;74.638;2024-01-06T09:41:29;29.48;;;10.00;;
83895;SDS011;74045;42.812;74.638;2024-01-06T09:43:56;26.67;;;10.02;;
83895;SDS011;74045;42.812;74.638;2024-01-06T09:46:25;26.60;;;11.35;;
83895;SDS011;74045;42.812;74.638;2024-01-06T09:48:53;20.25;;;9.63;;
83895;SDS011;74045;42.812;74.638;2024-01-06T09:51:20;23.20;;;9.88;;
83895;SDS011;74045;42.812;74.638;2024-01-06T09:53:53;24.50;;;9.38;;
83895;SDS011;74045;42.812;74.638;2024-01-06T09:56:21;29.70;;;9.15;;
83895;SDS011;74045;42.812;74.638;2024-01-06T09:58:50;25.83;;;9.63;;
83895;SDS011;74045;42.812;74.638;2024-01-06T10:01:17;21.83;;;9.43;;
83895;SDS011;74045;42.812;74.638;2024-01-06T10:03:43;24.00;;;10.05;;
83895;SDS011;74045;42.812;74.638;2024-01-06T10:06:10;23.40;;;9.13;;
83895;SDS011;74045;42.812;74.638;2024-01-06T10:08:36;28.20;;;9.63;;
83895;SDS011;74045;42.812;74.638;2024-01-06T10:11:05;21.58;;;10.00;;
83895;SDS011;74045;42.812;74.638;2024-01-06T10:13:33;26.73;;;10.75;;
83895;SDS011;74045;42.812;74.638;2024-01-06T10:15:59;27.58;;;11.13;;
83895;SDS011;74045;42.812;74.638;2024-01-06T10:18:26;34.85;;;10.95;;
83895;SDS011;74045;42.812;74.638;2024-01-06T10:20:55;35.35;;;11.27;;
83895;SDS011;74045;42.812;74.638;2024-01-06T10:23:22;27.10;;;10.93;;
83895;SDS011;74045;42.812;74.638;2024-01-06T10:25:51;36.03;;;11.82;;
83895;SDS011;74045;42.812;74.638;2024-01-06T10:28:17;37.80;;;11.75;;
83895;SDS011;74045;42.812;74.638;2024-01-06T10:30:43;30.88;;;12.15;;
83895;SDS011;74045;42.812;74.638;2024-01-06T10:33:09;24.27;;;12.32;;
83895;SDS011;74045;42.812;74.638;2024-01-06T10:35:35;32.13;;;12.35;;
83895;SDS011;74045;42.812;74.638;2024-01-06T10:38:02;25.60;;;11.73;;
83895;SDS011;74045;42.812;74.638;2024-01-06T10:40:28;32.83;;;12.32;;
83895;SDS011;74045;42.812;74.638;2024-01-06T10:42:54;23.70;;;11.25;;
83895;SDS011;74045;42.812;74.638;2024-01-06T10:45:22;34.92;;;12.40;;
83895;SDS011;74045;42.812;74.638;2024-01-06T10:47:48;36.65;;;13.13;;
83895;SDS011;74045;42.812;74.638;2024-01-06T10:50:16;38.85;;;13.75;;
83895;SDS011;74045;42.812;74.638;2024-01-06T10:52:43;35.17;;;14.02;;
83895;SDS011;74045;42.812;74.638;2024-01-06T10:55:09;37.83;;;14.02;;
83895;SDS011;74045;42.812;74.638;2024-01-06T10:57:37;32.90;;;13.82;;
83895;SDS011;74045;42.812;74.638;2024-01-06T11:00:03;44.63;;;15.23;;
83895;SDS011;74045;42.812;74.638;2024-01-06T11:02:31;40.78;;;13.98;;
83895;SDS011;74045;42.812;74.638;2024-01-06T11:04:57;46.35;;;14.65;;
83895;SDS011;74045;42.812;74.638;2024-01-06T11:07:23;54.35;;;19.33;;
83895;SDS011;74045;42.812;74.638;2024-01-06T11:09:57;63.78;;;18.13;;
83895;SDS011;74045;42.812;74.638;2024-01-06T11:15:43;58.35;;;19.50;;
83895;SDS011;74045;42.812;74.638;2024-01-06T11:18:09;66.57;;;21.60;;
83895;SDS011;74045;42.812;74.638;2024-01-06T11:20:34;69.72;;;22.42;;
83895;SDS011;74045;42.812;74.638;2024-01-06T11:23:19;74.57;;;22.33;;
83895;SDS011;74045;42.812;74.638;2024-01-06T11:25:45;69.65;;;22.50;;
83895;SDS011;74045;42.812;74.638;2024-01-06T11:28:11;74.93;;;23.00;;
83895;SDS011;74045;42.812;74.638;2024-01-06T11:30:37;68.22;;;23.33;;
83895;SDS011;74045;42.812;74.638;2024-01-06T11:33:04;78.38;;;26.58;;
83895;SDS011;74045;42.812;74.638;2024-01-06T11:35:30;89.85;;;27.67;;
83895;SDS011;74045;42.812;74.638;2024-01-06T11:38:02;84.90;;;30.13;;
83895;SDS011;74045;42.812;74.638;2024-01-06T11:40:32;121.15;;;34.17;;
83895;SDS011;74045;42.812;74.638;2024-01-06T11:43:06;87.40;;;31.33;;
83895;SDS011;74045;42.812;74.638;2024-01-06T11:45:33;91.18;;;29.38;;
83895;SDS011;74045;42.812;74.638;2024-01-06T11:48:01;75.28;;;27.17;;
83895;SDS011;74045;42.812;74.638;2024-01-06T11:50:29;79.65;;;27.38;;
83895;SDS011;74045;42.812;74.638;2024-01-06T11:52:57;72.57;;;25.88;;
83895;SDS011;74045;42.812;74.638;2024-01-06T11:55:24;91.40;;;25.80;;
83895;SDS011;74045;42.812;74.638;2024-01-06T11:57:54;65.13;;;20.10;;
83895;SDS011;74045;42.812;74.638;2024-01-06T12:00:21;56.00;;;18.60;;
83895;SDS011;74045;42.812;74.638;2024-01-06T12:02:47;38.22;;;14.98;;
83895;SDS011;74045;42.812;74.638;2024-01-06T12:05:14;40.75;;;15.70;;
83895;SDS011;74045;42.812;74.638;2024-01-06T12:07:41;44.25;;;15.63;;
83895;SDS011;74045;42.812;74.638;2024-01-06T12:10:10;34.03;;;13.40;;
83895;SDS011;74045;42.812;74.638;2024-01-06T12:12:37;34.20;;;13.50;;
83895;SDS011;74045;42.812;74.638;2024-01-06T12:15:03;35.13;;;12.93;;
83895;SDS011;74045;42.812;74.638;2024-01-06T12:17:30;36.33;;;13.80;;
83895;SDS011;74045;42.812;74.638;2024-01-06T12:19:56;47.50;;;14.82;;
83895;SDS011;74045;42.812;74.638;2024-01-06T12:22:22;37.35;;;14.77;;
83895;SDS011;74045;42.812;74.638;2024-01-06T12:24:51;36.97;;;13.40;;
83895;SDS011;74045;42.812;74.638;2024-01-06T12:27:17;48.38;;;15.98;;
83895;SDS011;74045;42.812;74.638;2024-01-06T12:29:43;34.38;;;12.25;;
83895;SDS011;74045;42.812;74.638;2024-01-06T12:32:10;31.50;;;12.02;;
83895;SDS011;74045;42.812;74.638;2024-01-06T12:34:38;32.20;;;10.68;;
83895;SDS011;74045;42.812;74.638;2024-01-06T12:37:05;27.63;;;10.43;;
83895;SDS011;74045;42.812;74.638;2024-01-06T12:39:33;26.05;;;11.13;;
83895;SDS011;74045;42.812;74.638;2024-01-06T12:41:58;30.95;;;10.50;;
83895;SDS011;74045;42.812;74.638;2024-01-06T12:44:26;25.98;;;9.57;;
83895;SDS011;74045;42.812;74.638;2024-01-06T12:46:53;23.38;;;9.90;;
83895;SDS011;74045;42.812;74.638;2024-01-06T12:49:19;23.80;;;11.10;;
83895;SDS011;74045;42.812;74.638;2024-01-06T12:51:44;21.35;;;9.15;;
83895;SDS011;74045;42.812;74.638;2024-01-06T12:54:11;23.30;;;7.70;;
83895;SDS011;74045;42.812;74.638;2024-01-06T12:56:55;15.52;;;6.90;;
83895;SDS011;74045;42.812;74.638;2024-01-06T12:59:21;16.52;;;6.80;;
83895;SDS011;74045;42.812;74.638;2024-01-06T13:01:46;16.05;;;7.13;;
83895;SDS011;74045;42.812;74.638;2024-01-06T13:04:12;12.50;;;6.35;;
83895;SDS011;74045;42.812;74.638;2024-01-06T13:06:38;14.82;;;6.15;;
83895;SDS011;74045;42.812;74.638;2024-01-06T13:09:05;12.85;;;5.50;;
83895;SDS011;74045;42.812;74.638;2024-01-06T13:11:31;16.02;;;6.57;;
83895;SDS011;74045;42.812;74.638;2024-01-06T13:13:59;12.13;;;5.57;;
83895;SDS011;74045;42.812;74.638;2024-01-06T13:16:25;11.27;;;5.88;;
83895;SDS011;74045;42.812;74.638;2024-01-06T13:18:50;12.05;;;5.47;;
83895;SDS011;74045;42.812;74.638;2024-01-06T13:21:17;8.30;;;4.28;;
83895;SDS011;74045;42.812;74.638;2024-01-06T13:23:43;13.02;;;4.70;;
83895;SDS011;74045;42.812;74.638;2024-01-06T13:26:08;21.55;;;4.80;;
83895;SDS011;74045;42.812;74.638;2024-01-06T13:28:34;15.60;;;5.30;;
83895;SDS011;74045;42.812;74.638;2024-01-06T13:31:00;15.95;;;6.70;;
83895;SDS011;74045;42.812;74.638;2024-01-06T13:33:26;17.27;;;8.15;;
83895;SDS011;74045;42.812;74.638;2024-01-06T13:35:51;21.50;;;8.10;;
83895;SDS011;74045;42.812;74.638;2024-01-06T13:38:17;29.38;;;10.15;;
83895;SDS011;74045;42.812;74.638;2024-01-06T13:40:43;18.92;;;9.00;;
83895;SDS011;74045;42.812;74.638;2024-01-06T13:43:09;19.52;;;7.38;;
83895;SDS011;74045;42.812;74.638;2024-01-06T13:45:40;26.83;;;9.57;;
83895;SDS011;74045;42.812;74.638;2024-01-06T13:48:08;20.30;;;8.15;;
83895;SDS011;74045;42.812;74.638;2024-01-06T13:50:34;18.90;;;7.40;;
83895;SDS011;74045;42.812;74.638;2024-01-06T13:53:00;21.20;;;7.82;;
83895;SDS011;74045;42.812;74.638;2024-01-06T13:55:28;22.98;;;7.80;;
83895;SDS011;74045;42.812;74.638;2024-01-06T13:57:54;24.10;;;7.75;;
83895;SDS011;74045;42.812;74.638;2024-01-06T14:00:20;20.90;;;8.02;;
83895;SDS011;74045;42.812;74.638;2024-01-06T14:02:46;20.75;;;7.63;;
83895;SDS011;74045;42.812;74.638;2024-01-06T14:05:14;20.02;;;8.55;;
83895;SDS011;74045;42.812;74.638;2024-01-06T14:07:40;18.80;;;6.43;;
83895;SDS011;74045;42.812;74.638;2024-01-06T14:10:10;18.23;;;6.72;;